sensor_id;sensor_type;location;lat;lon;timestamp;P1;durP1;ratioP1;P2;durP2;ratioP2
83684;SDS011;73666;51.304;5.776;2024-03-02T00:03:23;1.35;;;0.52;;
83684;SDS011;73666;51.304;5.776;2024-03-02T00:08:26;0.10;;;0.10;;
83684;SDS011;73666;51.304;5.776;2024-03-02T00:13:27;0.60;;;0.20;;
83684;SDS011;73666;51.304;5.776;2024-03-02T00:18:33;0.82;;;0.30;;
83684;SDS011;73666;51.304;5.776;2024-03-02T00:23:35;0.75;;;0.22;;
83684;SDS011;73666;51.304;5.776;2024-03-02T00:28:36;0.85;;;0.38;;
83684;SDS011;73666;51.304;5.776;2024-03-02T00:33:43;1.08;;;0.20;;
83684;SDS011;73666;51.304;5.776;2024-03-02T00:49:17;1.80;;;0.35;;
83684;SDS011;73666;51.304;5.776;2024-03-02T00:54:23;2.05;;;0.20;;
83684;SDS011;73666;51.304;5.776;2024-03-02T00:59:26;2.13;;;0.30;;
83684;SDS011;73666;51.304;5.776;2024-03-02T01:04:27;0.28;;;0.10;;
83684;SDS011;73666;51.304;5.776;2024-03-02T01:09:29;0.52;;;0.20;;
83684;SDS011;73666;51.304;5.776;2024-03-02T01:14:30;0.10;;;0.00;;
83684;SDS011;73666;51.304;5.776;2024-03-02T01:19:31;0.40;;;0.10;;
83684;SDS011;73666;51.304;5.776;2024-03-02T01:24:33;0.28;;;0.08;;
83684;SDS011;73666;51.304;5.776;2024-03-02T01:29:35;1.67;;;0.10;;
83684;SDS011;73666;51.304;5.776;2024-03-02T01:34:38;0.20;;;0.10;;
83684;SDS011;73666;51.304;5.776;2024-03-02T01:39:39;0.70;;;0.22;;
83684;SDS011;73666;51.304;5.776;2024-03-02T01:44:40;1.00;;;0.10;;
83684;SDS011;73666;51.304;5.776;2024-03-02T01:49:42;0.70;;;0.20;;
83684;SDS011;73666;51.304;5.776;2024-03-02T01:54:44;0.20;;;0.13;;
83684;SDS011;73666;51.304;5.776;2024-03-02T01:59:46;0.73;;;0.10;;
83684;SDS011;73666;51.304;5.776;2024-03-02T02:04:50;0.40;;;0.22;;
83684;SDS011;73666;51.304;5.776;2024-03-02T02:09:51;0.70;;;0.30;;
83684;SDS011;73666;51.304;5.776;2024-03-02T02:20:01;0.13;;;0.10;;
83684;SDS011;73666;51.304;5.776;2024-03-02T02:25:05;0.50;;;0.20;;
83684;SDS011;73666;51.304;5.776;2024-03-02T02:30:07;1.00;;;0.20;;
83684;SDS011;73666;51.304;5.776;2024-03-02T02:35:13;0.90;;;0.15;;
83684;SDS011;73666;51.304;5.776;2024-03-02T02:40:14;2.00;;;0.30;;
83684;SDS011;73666;51.304;5.776;2024-03-02T02:45:15;0.55;;;0.10;;
83684;SDS011;73666;51.304;5.776;2024-03-02T02:50:16;0.28;;;0.10;;
83684;SDS011;73666;51.304;5.776;2024-03-02T02:55:17;0.70;;;0.10;;
83684;SDS011;73666;51.304;5.776;2024-03-02T03:00:18;0.30;;;0.05;;
83684;SDS011;73666;51.304;5.776;2024-03-02T03:05:19;0.20;;;0.08;;
83684;SDS011;73666;51.304;5.776;2024-03-02T03:10:20;0.80;;;0.10;;
83684;SDS011;73666;51.304;5.776;2024-03-02T03:15:23;0.20;;;0.00;;
83684;SDS011;73666;51.304;5.776;2024-03-02T03:20:24;0.60;;;0.17;;
83684;SDS011;73666;51.304;5.776;2024-03-02T03:25:25;0.15;;;0.03;;
83684;SDS011;73666;51.304;5.776;2024-03-02T03:30:25;0.30;;;0.10;;
83684;SDS011;73666;51.304;5.776;2024-03-02T03:35:26;0.17;;;0.10;;
83684;SDS011;73666;51.304;5.776;2024-03-02T03:40:27;0.28;;;0.10;;
83684;SDS011;73666;51.304;5.776;2024-03-02T03:45:28;0.88;;;0.10;;
83684;SDS011;73666;51.304;5.776;2024-03-02T03:50:30;0.70;;;0.20;;
83684;SDS011;73666;51.304;5.776;2024-03-02T03:55:31;1.08;;;0.10;;
83684;SDS011;73666;51.304;5.776;2024-03-02T04:00:31;0.88;;;0.10;;
83684;SDS011;73666;51.304;5.776;2024-03-02T04:05:32;0.30;;;0.10;;
83684;SDS011;73666;51.304;5.776;2024-03-02T04:10:33;0.10;;;0.00;;
83684;SDS011;73666;51.304;5.776;2024-03-02T04:15:34;0.47;;;0.20;;
83684;SDS011;73666;51.304;5.776;2024-03-02T04:20:35;0.50;;;0.10;;
83684;SDS011;73666;51.304;5.776;2024-03-02T04:25:35;0.22;;;0.10;;
83684;SDS011;73666;51.304;5.776;2024-03-02T04:30:36;0.30;;;0.10;;
83684;SDS011;73666;51.304;5.776;2024-03-02T04:35:37;0.65;;;0.20;;
83684;SDS011;73666;51.304;5.776;2024-03-02T04:40:38;0.65;;;0.22;;
83684;SDS011;73666;51.304;5.776;2024-03-02T04:45:39;0.75;;;0.10;;
83684;SDS011;73666;51.304;5.776;2024-03-02T04:50:43;1.95;;;0.10;;
83684;SDS011;73666;51.304;5.776;2024-03-02T04:55:43;1.50;;;0.50;;
83684;SDS011;73666;51.304;5.776;2024-03-02T05:00:44;0.40;;;0.10;;
83684;SDS011;73666;51.304;5.776;2024-03-02T05:05:46;1.65;;;0.40;;
83684;SDS011;73666;51.304;5.776;2024-03-02T05:10:47;0.80;;;0.17;;
83684;SDS011;73666;51.304;5.776;2024-03-02T05:15:48;0.82;;;0.30;;
83684;SDS011;73666;51.304;5.776;2024-03-02T05:20:49;0.63;;;0.40;;
83684;SDS011;73666;51.304;5.776;2024-03-02T05:25:50;3.22;;;0.55;;
83684;SDS011;73666;51.304;5.776;2024-03-02T05:30:51;6.80;;;3.90;;
83684;SDS011;73666;51.304;5.776;2024-03-02T05:35:51;3.20;;;2.42;;
83684;SDS011;73666;51.304;5.776;2024-03-02T05:40:53;2.25;;;1.15;;
83684;SDS011;73666;51.304;5.776;2024-03-02T05:45:57;0.63;;;0.60;;
83684;SDS011;73666;51.304;5.776;2024-03-02T05:51:00;0.80;;;0.20;;
83684;SDS011;73666;51.304;5.776;2024-03-02T05:56:03;1.23;;;0.60;;
83684;SDS011;73666;51.304;5.776;2024-03-02T06:01:05;1.77;;;0.57;;
83684;SDS011;73666;51.304;5.776;2024-03-02T06:06:14;0.68;;;0.45;;
83684;SDS011;73666;51.304;5.776;2024-03-02T06:11:21;2.40;;;1.23;;
83684;SDS011;73666;51.304;5.776;2024-03-02T06:16:22;4.00;;;3.00;;
83684;SDS011;73666;51.304;5.776;2024-03-02T06:21:24;2.25;;;0.80;;
83684;SDS011;73666;51.304;5.776;2024-03-02T06:31:27;1.88;;;0.20;;
83684;SDS011;73666;51.304;5.776;2024-03-02T06:36:29;1.48;;;0.20;;
83684;SDS011;73666;51.304;5.776;2024-03-02T06:41:29;1.08;;;0.15;;
83684;SDS011;73666;51.304;5.776;2024-03-02T06:51:34;0.68;;;0.28;;
83684;SDS011;73666;51.304;5.776;2024-03-02T06:56:36;1.55;;;0.30;;
83684;SDS011;73666;51.304;5.776;2024-03-02T07:01:39;1.80;;;0.20;;
83684;SDS011;73666;51.304;5.776;2024-03-02T07:06:40;0.43;;;0.10;;
83684;SDS011;73666;51.304;5.776;2024-03-02T07:11:41;0.22;;;0.15;;
83684;SDS011;73666;51.304;5.776;2024-03-02T07:16:49;0.88;;;0.05;;
83684;SDS011;73666;51.304;5.776;2024-03-02T07:21:50;1.02;;;0.17;;
83684;SDS011;73666;51.304;5.776;2024-03-02T07:26:50;0.82;;;0.25;;
83684;SDS011;73666;51.304;5.776;2024-03-02T07:31:56;0.80;;;0.15;;
83684;SDS011;73666;51.304;5.776;2024-03-02T07:36:58;1.00;;;0.20;;
83684;SDS011;73666;51.304;5.776;2024-03-02T07:42:00;2.17;;;0.30;;
83684;SDS011;73666;51.304;5.776;2024-03-02T07:47:01;0.50;;;0.20;;
83684;SDS011;73666;51.304;5.776;2024-03-02T07:52:01;1.33;;;0.60;;
83684;SDS011;73666;51.304;5.776;2024-03-02T07:57:03;1.30;;;0.20;;
83684;SDS011;73666;51.304;5.776;2024-03-02T08:02:09;1.85;;;0.55;;
83684;SDS011;73666;51.304;5.776;2024-03-02T08:07:12;1.85;;;0.20;;
83684;SDS011;73666;51.304;5.776;2024-03-02T08:12:14;1.05;;;0.13;;
83684;SDS011;73666;51.304;5.776;2024-03-02T08:17:19;0.98;;;0.20;;
83684;SDS011;73666;51.304;5.776;2024-03-02T08:22:20;1.70;;;0.25;;
83684;SDS011;73666;51.304;5.776;2024-03-02T08:27:21;5.03;;;0.82;;
83684;SDS011;73666;51.304;5.776;2024-03-02T08:32:22;1.40;;;0.47;;
83684;SDS011;73666;51.304;5.776;2024-03-02T08:37:23;2.25;;;0.15;;
83684;SDS011;73666;51.304;5.776;2024-03-02T08:42:24;0.47;;;0.20;;
83684;SDS011;73666;51.304;5.776;2024-03-02T08:47:25;0.22;;;0.20;;
83684;SDS011;73666;51.304;5.776;2024-03-02T08:52:26;2.17;;;0.50;;
83684;SDS011;73666;51.304;5.776;2024-03-02T08:57:29;1.50;;;0.75;;
83684;SDS011;73666;51.304;5.776;2024-03-02T09:02:30;2.08;;;0.50;;
83684;SDS011;73666;51.304;5.776;2024-03-02T09:07:33;1.52;;;0.55;;
83684;SDS011;73666;51.304;5.776;2024-03-02T09:12:34;1.83;;;0.20;;
83684;SDS011;73666;51.304;5.776;2024-03-02T09:17:35;1.75;;;0.40;;
83684;SDS011;73666;51.304;5.776;2024-03-02T09:22:36;0.73;;;0.28;;
83684;SDS011;73666;51.304;5.776;2024-03-02T09:27:38;1.50;;;0.40;;
83684;SDS011;73666;51.304;5.776;2024-03-02T09:37:47;1.25;;;0.55;;
83684;SDS011;73666;51.304;5.776;2024-03-02T09:42:48;2.10;;;0.30;;
83684;SDS011;73666;51.304;5.776;2024-03-02T09:47:54;1.75;;;0.40;;
83684;SDS011;73666;51.304;5.776;2024-03-02T09:52:55;2.83;;;0.45;;
83684;SDS011;73666;51.304;5.776;2024-03-02T09:58:01;2.28;;;0.45;;
83684;SDS011;73666;51.304;5.776;2024-03-02T10:03:03;5.45;;;1.13;;
83684;SDS011;73666;51.304;5.776;2024-03-02T10:08:05;1.77;;;0.77;;
83684;SDS011;73666;51.304;5.776;2024-03-02T10:13:08;2.05;;;0.60;;
83684;SDS011;73666;51.304;5.776;2024-03-02T10:18:12;3.78;;;1.00;;
83684;SDS011;73666;51.304;5.776;2024-03-02T10:23:20;4.57;;;2.00;;
83684;SDS011;73666;51.304;5.776;2024-03-02T10:28:21;2.03;;;1.23;;
83684;SDS011;73666;51.304;5.776;2024-03-02T10:33:22;1.77;;;0.20;;
83684;SDS011;73666;51.304;5.776;2024-03-02T10:38:24;1.70;;;0.52;;
83684;SDS011;73666;51.304;5.776;2024-03-02T10:43:25;5.10;;;0.85;;
83684;SDS011;73666;51.304;5.776;2024-03-02T10:48:27;3.50;;;0.82;;
83684;SDS011;73666;51.304;5.776;2024-03-02T10:53:29;1.95;;;1.08;;
83684;SDS011;73666;51.304;5.776;2024-03-02T10:58:33;0.75;;;0.40;;
83684;SDS011;73666;51.304;5.776;2024-03-02T11:03:35;1.23;;;0.28;;
83684;SDS011;73666;51.304;5.776;2024-03-02T11:08:40;1.88;;;0.93;;
83684;SDS011;73666;51.304;5.776;2024-03-02T11:13:46;1.83;;;0.52;;
83684;SDS011;73666;51.304;5.776;2024-03-02T11:18:51;0.10;;;0.05;;
83684;SDS011;73666;51.304;5.776;2024-03-02T11:23:52;3.45;;;0.70;;
83684;SDS011;73666;51.304;5.776;2024-03-02T11:28:53;5.15;;;0.80;;
83684;SDS011;73666;51.304;5.776;2024-03-02T11:33:57;2.47;;;0.80;;
83684;SDS011;73666;51.304;5.776;2024-03-02T11:39:16;4.25;;;0.57;;
83684;SDS011;73666;51.304;5.776;2024-03-02T11:44:18;1.17;;;0.35;;
83684;SDS011;73666;51.304;5.776;2024-03-02T11:54:44;1.00;;;0.30;;
83684;SDS011;73666;51.304;5.776;2024-03-02T11:59:46;3.45;;;0.38;;
83684;SDS011;73666;51.304;5.776;2024-03-02T12:04:49;4.20;;;0.40;;
83684;SDS011;73666;51.304;5.776;2024-03-02T12:09:59;2.60;;;0.15;;
83684;SDS011;73666;51.304;5.776;2024-03-02T12:15:04;2.70;;;0.50;;
83684;SDS011;73666;51.304;5.776;2024-03-02T12:20:05;1.75;;;0.40;;
83684;SDS011;73666;51.304;5.776;2024-03-02T12:25:09;1.92;;;0.40;;
83684;SDS011;73666;51.304;5.776;2024-03-02T12:30:11;2.30;;;0.40;;
83684;SDS011;73666;51.304;5.776;2024-03-02T12:35:14;1.70;;;0.17;;
83684;SDS011;73666;51.304;5.776;2024-03-02T12:40:16;1.20;;;0.30;;
83684;SDS011;73666;51.304;5.776;2024-03-02T12:45:20;1.38;;;0.22;;
83684;SDS011;73666;51.304;5.776;2024-03-02T12:50:23;2.35;;;0.50;;
83684;SDS011;73666;51.304;5.776;2024-03-02T12:55:24;1.38;;;0.10;;
83684;SDS011;73666;51.304;5.776;2024-03-02T13:00:25;8.40;;;0.55;;
83684;SDS011;73666;51.304;5.776;2024-03-02T13:05:29;2.95;;;0.73;;
83684;SDS011;73666;51.304;5.776;2024-03-02T13:10:31;2.25;;;0.30;;
83684;SDS011;73666;51.304;5.776;2024-03-02T13:15:33;2.47;;;0.30;;
83684;SDS011;73666;51.304;5.776;2024-03-02T13:20:35;1.75;;;0.40;;
83684;SDS011;73666;51.304;5.776;2024-03-02T13:25:36;0.52;;;0.17;;
83684;SDS011;73666;51.304;5.776;2024-03-02T13:30:36;2.35;;;0.30;;
83684;SDS011;73666;51.304;5.776;2024-03-02T13:35:37;0.80;;;0.20;;
83684;SDS011;73666;51.304;5.776;2024-03-02T13:40:38;2.00;;;0.57;;
83684;SDS011;73666;51.304;5.776;2024-03-02T13:45:39;1.65;;;0.50;;
83684;SDS011;73666;51.304;5.776;2024-03-02T13:50:40;2.03;;;0.50;;
83684;SDS011;73666;51.304;5.776;2024-03-02T13:55:40;2.67;;;0.22;;
83684;SDS011;73666;51.304;5.776;2024-03-02T14:00:41;1.45;;;0.50;;
83684;SDS011;73666;51.304;5.776;2024-03-02T14:05:44;3.50;;;0.47;;
83684;SDS011;73666;51.304;5.776;2024-03-02T14:10:49;0.80;;;0.20;;
83684;SDS011;73666;51.304;5.776;2024-03-02T14:15:50;0.85;;;0.30;;
83684;SDS011;73666;51.304;5.776;2024-03-02T14:20:50;0.30;;;0.20;;
83684;SDS011;73666;51.304;5.776;2024-03-02T14:25:52;1.83;;;0.30;;
83684;SDS011;73666;51.304;5.776;2024-03-02T14:30:53;0.28;;;0.17;;
83684;SDS011;73666;51.304;5.776;2024-03-02T14:35:54;1.88;;;0.28;;
83684;SDS011;73666;51.304;5.776;2024-03-02T14:40:55;2.03;;;0.47;;
83684;SDS011;73666;51.304;5.776;2024-03-02T14:45:56;0.60;;;0.30;;
83684;SDS011;73666;51.304;5.776;2024-03-02T14:50:59;0.80;;;0.40;;
83684;SDS011;73666;51.304;5.776;2024-03-02T14:56:00;0.40;;;0.20;;
83684;SDS011;73666;51.304;5.776;2024-03-02T15:01:00;2.45;;;0.43;;
83684;SDS011;73666;51.304;5.776;2024-03-02T15:06:01;0.50;;;0.20;;
83684;SDS011;73666;51.304;5.776;2024-03-02T15:11:05;1.05;;;0.38;;
83684;SDS011;73666;51.304;5.776;2024-03-02T15:16:05;0.77;;;0.22;;
83684;SDS011;73666;51.304;5.776;2024-03-02T15:21:06;2.00;;;0.30;;
83684;SDS011;73666;51.304;5.776;2024-03-02T15:26:07;1.48;;;0.30;;
83684;SDS011;73666;51.304;5.776;2024-03-02T15:31:08;1.92;;;0.30;;
83684;SDS011;73666;51.304;5.776;2024-03-02T15:36:08;0.50;;;0.30;;
83684;SDS011;73666;51.304;5.776;2024-03-02T15:41:09;2.03;;;0.50;;
83684;SDS011;73666;51.304;5.776;2024-03-02T15:46:10;0.95;;;0.60;;
83684;SDS011;73666;51.304;5.776;2024-03-02T15:51:11;0.98;;;0.55;;
83684;SDS011;73666;51.304;5.776;2024-03-02T15:56:12;1.42;;;0.70;;
83684;SDS011;73666;51.304;5.776;2024-03-02T16:01:13;1.33;;;0.50;;
83684;SDS011;73666;51.304;5.776;2024-03-02T16:06:13;2.97;;;0.75;;
83684;SDS011;73666;51.304;5.776;2024-03-02T16:11:15;1.35;;;0.40;;
83684;SDS011;73666;51.304;5.776;2024-03-02T16:16:15;1.63;;;0.30;;
83684;SDS011;73666;51.304;5.776;2024-03-02T16:21:16;1.30;;;0.60;;
83684;SDS011;73666;51.304;5.776;2024-03-02T16:26:17;1.17;;;0.52;;
83684;SDS011;73666;51.304;5.776;2024-03-02T16:31:18;2.03;;;0.60;;
83684;SDS011;73666;51.304;5.776;2024-03-02T16:36:19;0.60;;;0.38;;
83684;SDS011;73666;51.304;5.776;2024-03-02T16:41:20;0.95;;;0.60;;
83684;SDS011;73666;51.304;5.776;2024-03-02T16:46:21;6.53;;;2.70;;
83684;SDS011;73666;51.304;5.776;2024-03-02T16:51:22;2.03;;;1.23;;
83684;SDS011;73666;51.304;5.776;2024-03-02T16:56:22;0.70;;;0.50;;
83684;SDS011;73666;51.304;5.776;2024-03-02T17:01:25;1.33;;;0.70;;
83684;SDS011;73666;51.304;5.776;2024-03-02T17:06:27;1.55;;;0.90;;
83684;SDS011;73666;51.304;5.776;2024-03-02T17:11:29;2.58;;;1.42;;
83684;SDS011;73666;51.304;5.776;2024-03-02T17:16:32;3.30;;;2.10;;
83684;SDS011;73666;51.304;5.776;2024-03-02T17:21:35;2.72;;;1.33;;
83684;SDS011;73666;51.304;5.776;2024-03-02T17:26:36;1.25;;;1.15;;
83684;SDS011;73666;51.304;5.776;2024-03-02T17:31:40;2.38;;;1.08;;
83684;SDS011;73666;51.304;5.776;2024-03-02T17:36:41;2.38;;;1.10;;
83684;SDS011;73666;51.304;5.776;2024-03-02T17:41:42;1.10;;;0.82;;
83684;SDS011;73666;51.304;5.776;2024-03-02T17:46:44;1.35;;;1.00;;
83684;SDS011;73666;51.304;5.776;2024-03-02T17:56:45;2.22;;;0.90;;
83684;SDS011;73666;51.304;5.776;2024-03-02T18:01:46;1.75;;;0.90;;
83684;SDS011;73666;51.304;5.776;2024-03-02T18:06:47;0.70;;;0.45;;
83684;SDS011;73666;51.304;5.776;2024-03-02T18:11:48;2.67;;;0.90;;
83684;SDS011;73666;51.304;5.776;2024-03-02T18:16:49;1.67;;;0.52;;
83684;SDS011;73666;51.304;5.776;2024-03-02T18:21:50;1.05;;;0.60;;
83684;SDS011;73666;51.304;5.776;2024-03-02T18:26:52;2.75;;;0.80;;
83684;SDS011;73666;51.304;5.776;2024-03-02T18:31:53;2.63;;;0.77;;
83684;SDS011;73666;51.304;5.776;2024-03-02T18:36:54;1.45;;;0.90;;
83684;SDS011;73666;51.304;5.776;2024-03-02T18:41:55;3.15;;;1.00;;
83684;SDS011;73666;51.304;5.776;2024-03-02T18:46:56;1.23;;;0.85;;
83684;SDS011;73666;51.304;5.776;2024-03-02T18:51:56;2.40;;;1.00;;
83684;SDS011;73666;51.304;5.776;2024-03-02T18:57:01;2.45;;;1.20;;
83684;SDS011;73666;51.304;5.776;2024-03-02T19:02:04;2.22;;;0.82;;
83684;SDS011;73666;51.304;5.776;2024-03-02T19:12:11;2.15;;;1.50;;
83684;SDS011;73666;51.304;5.776;2024-03-02T19:17:12;1.13;;;0.90;;
83684;SDS011;73666;51.304;5.776;2024-03-02T19:22:13;3.10;;;1.40;;
83684;SDS011;73666;51.304;5.776;2024-03-02T19:27:15;2.25;;;1.45;;
83684;SDS011;73666;51.304;5.776;2024-03-02T19:32:20;1.85;;;1.38;;
83684;SDS011;73666;51.304;5.776;2024-03-02T19:37:23;3.08;;;1.55;;
83684;SDS011;73666;51.304;5.776;2024-03-02T19:42:25;2.85;;;1.63;;
83684;SDS011;73666;51.304;5.776;2024-03-02T19:47:27;2.60;;;1.30;;
83684;SDS011;73666;51.304;5.776;2024-03-02T19:52:37;5.35;;;1.60;;
83684;SDS011;73666;51.304;5.776;2024-03-02T19:57:38;2.65;;;1.83;;
83684;SDS011;73666;51.304;5.776;2024-03-02T20:07:50;3.30;;;1.80;;
83684;SDS011;73666;51.304;5.776;2024-03-02T20:12:51;2.00;;;1.38;;
83684;SDS011;73666;51.304;5.776;2024-03-02T20:17:53;2.67;;;1.73;;
83684;SDS011;73666;51.304;5.776;2024-03-02T20:22:55;4.38;;;1.95;;
83684;SDS011;73666;51.304;5.776;2024-03-02T20:27:55;3.20;;;1.63;;
83684;SDS011;73666;51.304;5.776;2024-03-02T20:33:00;3.85;;;2.38;;
83684;SDS011;73666;51.304;5.776;2024-03-02T20:38:02;1.65;;;1.35;;
83684;SDS011;73666;51.304;5.776;2024-03-02T20:43:05;1.98;;;1.58;;
83684;SDS011;73666;51.304;5.776;2024-03-02T20:48:07;2.50;;;1.40;;
83684;SDS011;73666;51.304;5.776;2024-03-02T20:53:16;3.90;;;2.20;;
83684;SDS011;73666;51.304;5.776;2024-03-02T20:58:19;3.13;;;1.90;;
83684;SDS011;73666;51.304;5.776;2024-03-02T21:03:24;4.63;;;2.20;;
83684;SDS011;73666;51.304;5.776;2024-03-02T21:08:25;5.90;;;2.35;;
83684;SDS011;73666;51.304;5.776;2024-03-02T21:13:26;3.25;;;1.60;;
83684;SDS011;73666;51.304;5.776;2024-03-02T21:18:27;2.17;;;0.88;;
83684;SDS011;73666;51.304;5.776;2024-03-02T21:23:28;3.63;;;2.30;;
83684;SDS011;73666;51.304;5.776;2024-03-02T21:28:30;4.90;;;1.98;;
83684;SDS011;73666;51.304;5.776;2024-03-02T21:38:34;3.10;;;2.25;;
83684;SDS011;73666;51.304;5.776;2024-03-02T21:43:35;4.40;;;2.00;;
83684;SDS011;73666;51.304;5.776;2024-03-02T21:53:41;3.42;;;2.38;;
83684;SDS011;73666;51.304;5.776;2024-03-02T21:58:42;3.67;;;2.17;;
83684;SDS011;73666;51.304;5.776;2024-03-02T22:03:43;5.30;;;2.88;;
83684;SDS011;73666;51.304;5.776;2024-03-02T22:08:47;2.70;;;2.22;;
83684;SDS011;73666;51.304;5.776;2024-03-02T22:13:48;4.15;;;2.20;;
83684;SDS011;73666;51.304;5.776;2024-03-02T22:18:49;2.35;;;1.90;;
83684;SDS011;73666;51.304;5.776;2024-03-02T22:23:50;3.35;;;2.25;;
83684;SDS011;73666;51.304;5.776;2024-03-02T22:28:51;2.72;;;1.90;;
83684;SDS011;73666;51.304;5.776;2024-03-02T22:33:51;3.20;;;1.92;;
83684;SDS011;73666;51.304;5.776;2024-03-02T22:38:52;3.20;;;2.08;;
83684;SDS011;73666;51.304;5.776;2024-03-02T22:43:55;3.20;;;1.73;;
83684;SDS011;73666;51.304;5.776;2024-03-02T22:49:00;2.88;;;1.92;;
83684;SDS011;73666;51.304;5.776;2024-03-02T22:54:05;3.22;;;1.92;;
83684;SDS011;73666;51.304;5.776;2024-03-02T22:59:05;3.08;;;2.17;;
83684;SDS011;73666;51.304;5.776;2024-03-02T23:04:07;3.40;;;1.80;;
83684;SDS011;73666;51.304;5.776;2024-03-02T23:09:09;2.90;;;1.60;;
83684;SDS011;73666;51.304;5.776;2024-03-02T23:14:11;2.47;;;1.42;;
83684;SDS011;73666;51.304;5.776;2024-03-02T23:19:12;3.10;;;2.00;;
83684;SDS011;73666;51.304;5.776;2024-03-02T23:24:20;3.05;;;1.95;;
83684;SDS011;73666;51.304;5.776;2024-03-02T23:29:26;4.32;;;1.52;;
83684;SDS011;73666;51.304;5.776;2024-03-02T23:34:27;2.85;;;1.67;;
83684;SDS011;73666;51.304;5.776;2024-03-02T23:39:29;3.40;;;1.90;;
83684;SDS011;73666;51.304;5.776;2024-03-02T23:44:59;2.50;;;1.70;;
83684;SDS011;73666;51.304;5.776;2024-03-02T23:50:02;2.75;;;1.17;;
83684;SDS011;73666;51.304;5.776;2024-03-02T23:55:12;2.85;;;1.63;;
